Time;durP1;ratioP1;P1;durP2;ratioP2;P2;SDS_P1;SDS_P2;PMS_P1;PMS_P2;Temp;Humidity;BMP_temperature;BMP_pressure;BME280_temperature;BME280_humidity;BME280_pressure;Samples;Min_cycle;Max_cycle;Signal;HPM_P1;HPM_P2
2022/04/22 00:00:22;;;;;;;4.93;4.35;;;13.10;91.30;;;;;;4905209;29;20048;-95
2022/04/22 00:02:48;;;;;;;5.35;4.50;;;13.20;91.10;;;;;;4921447;29;20040;-95
2022/04/22 00:05:14;;;;;;;7.95;4.82;;;13.10;91.70;;;;;;4919885;29;20047;-96
2022/04/22 00:07:40;;;;;;;4.78;4.28;;;13.20;91.50;;;;;;4907055;29;20537;-95
2022/04/22 00:10:09;;;;;;;5.32;4.80;;;13.30;91.40;;;;;;4904042;29;20104;-95
2022/04/22 00:12:35;;;;;;;5.97;4.15;;;13.30;91.40;;;;;;4899650;29;20040;-95
2022/04/22 00:15:01;;;;;;;5.95;5.35;;;13.30;91.60;;;;;;4904053;29;20086;-95
2022/04/22 00:17:26;;;;;;;5.50;4.78;;;13.20;91.80;;;;;;4919848;29;20044;-96
2022/04/22 00:19:55;;;;;;;6.22;5.63;;;13.10;92.20;;;;;;4902708;29;20485;-96
2022/04/22 00:22:21;;;;;;;5.63;5.05;;;13.20;92.40;;;;;;4920373;29;20052;-95
2022/04/22 00:24:47;;;;;;;10.02;8.30;;;13.20;92.10;;;;;;4891284;29;20040;-96
2022/04/22 00:27:15;;;;;;;7.47;6.22;;;13.30;91.90;;;;;;4922422;29;20048;-96
2022/04/22 00:29:40;;;;;;;6.80;6.15;;;13.10;92.40;;;;;;4883702;29;20036;-96
2022/04/22 00:32:09;;;;;;;5.95;5.40;;;13.00;92.50;;;;;;4902853;29;20402;-94
2022/04/22 00:34:38;;;;;;;8.02;6.22;;;12.90;93.00;;;;;;4904055;29;20095;-96
2022/04/22 00:37:04;;;;;;;7.57;6.82;;;12.80;93.40;;;;;;4912596;29;20036;-96
2022/04/22 00:39:32;;;;;;;7.30;6.50;;;12.90;93.30;;;;;;4904022;29;20074;-95
2022/04/22 00:42:07;;;;;;;6.60;5.97;;;12.90;93.40;;;;;;4919049;29;20079;-95
2022/04/22 00:44:34;;;;;;;6.72;4.70;;;12.80;93.60;;;;;;4919211;29;20040;-95
2022/04/22 00:47:00;;;;;;;5.80;4.97;;;12.90;93.30;;;;;;4916508;29;20036;-96
2022/04/22 00:49:27;;;;;;;4.57;4.18;;;12.90;93.60;;;;;;4900967;29;20164;-96
2022/04/22 00:51:54;;;;;;;5.03;4.50;;;13.00;93.40;;;;;;4901832;29;20079;-95
2022/04/22 00:54:19;;;;;;;9.48;5.55;;;12.90;93.40;;;;;;4887933;29;20131;-96
2022/04/22 00:56:45;;;;;;;4.25;3.85;;;12.90;93.20;;;;;;4903771;29;20127;-95
2022/04/22 00:59:11;;;;;;;4.45;4.00;;;12.80;93.40;;;;;;4906341;29;20036;-95
2022/04/22 01:01:40;;;;;;;4.68;4.20;;;12.90;93.20;;;;;;4898242;29;20036;-96
2022/04/22 01:09:47;;;;;;;5.70;5.15;;;13.10;92.50;;;;;;4916038;29;20042;-96
2022/04/22 01:12:14;;;;;;;6.40;4.78;;;13.00;92.90;;;;;;4920977;29;20044;-96
2022/04/22 01:14:41;;;;;;;4.78;4.28;;;13.00;92.90;;;;;;4904685;29;20123;-93
2022/04/22 01:17:11;;;;;;;5.07;3.80;;;13.00;92.60;;;;;;4921918;29;20040;-96
2022/04/22 01:19:37;;;;;;;4.65;4.18;;;13.10;92.70;;;;;;4905352;29;20482;-95
2022/04/22 01:22:08;;;;;;;6.63;5.50;;;13.00;92.80;;;;;;4881621;29;20052;-96
2022/04/22 01:24:33;;;;;;;;;;;12.80;93.30;;;;;;4901523;29;20033;-96
2022/04/22 01:26:59;;;;;;;5.63;4.70;;;12.90;93.10;;;;;;4915367;29;19911;-92
2022/04/22 01:29:33;;;;;;;8.98;7.93;;;12.70;93.90;;;;;;4920612;29;20059;-96
2022/04/22 01:32:08;;;;;;;7.32;5.65;;;12.60;93.60;;;;;;4904845;29;20568;-94
2022/04/22 01:34:33;;;;;;;5.00;4.50;;;12.60;94.00;;;;;;4901144;29;20032;-93
2022/04/22 01:37:06;;;;;;;7.40;5.82;;;12.40;94.30;;;;;;4920446;29;20044;-96
2022/04/22 01:39:32;;;;;;;7.00;6.32;;;12.50;94.10;;;;;;4914905;29;20631;-92
2022/04/22 01:45:04;;;;;;;6.05;5.28;;;12.60;94.10;;;;;;4904125;29;20123;-96
2022/04/22 01:47:30;;;;;;;4.80;3.10;;;12.60;93.90;;;;;;4901957;29;20506;-96
2022/04/22 01:50:18;;;;;;;6.53;4.90;;;12.60;94.00;;;;;;4900097;29;20089;-95
2022/04/22 01:52:45;;;;;;;4.63;3.00;;;12.70;93.30;;;;;;4918631;29;20036;-94
2022/04/22 01:55:11;;;;;;;3.55;3.10;;;12.80;93.50;;;;;;4906180;29;20048;-96
2022/04/22 01:57:41;;;;;;;3.40;3.10;;;12.90;93.20;;;;;;4911388;29;20037;-96
2022/04/22 02:00:08;;;;;;;6.72;5.40;;;12.90;93.00;;;;;;4895533;29;20048;-96
2022/04/22 02:02:40;;;;;;;6.45;3.60;;;12.80;93.10;;;;;;4892854;29;20044;-96
2022/04/22 02:05:06;;;;;;;3.65;3.08;;;12.80;93.10;;;;;;4906387;29;20068;-96
2022/04/22 02:07:32;;;;;;;3.53;3.05;;;12.90;92.90;;;;;;4889030;29;20070;-96
2022/04/22 02:09:58;;;;;;;4.30;3.72;;;12.90;92.60;;;;;;4899700;29;20089;-96
2022/04/22 02:12:28;;;;;;;8.25;6.72;;;13.00;92.30;;;;;;4902324;29;20048;-96
2022/04/22 02:14:59;;;;;;;6.93;6.10;;;12.90;92.20;;;;;;4900941;29;20036;-96
2022/04/22 02:17:30;;;;;;;5.07;3.67;;;12.60;92.80;;;;;;4897753;29;20466;-96
2022/04/22 02:20:12;;;;;;;4.22;3.25;;;12.60;93.40;;;;;;4904292;29;20036;-96
2022/04/22 02:22:47;;;;;;;4.57;3.72;;;12.70;93.30;;;;;;4897341;29;20052;-95
2022/04/22 02:25:12;;;;;;;11.05;5.53;;;12.70;93.20;;;;;;4910393;29;20051;-95
2022/04/22 02:30:54;;;;;;;3.40;3.10;;;12.80;93.00;;;;;;4906483;29;20395;-96
2022/04/22 02:33:20;;;;;;;4.57;3.80;;;13.00;92.50;;;;;;4897741;29;20490;-96
2022/04/22 02:35:46;;;;;;;5.50;5.00;;;12.90;92.60;;;;;;4897207;29;20047;-96
2022/04/22 02:38:15;;;;;;;5.05;4.32;;;12.70;92.90;;;;;;4887749;29;20048;-96
2022/04/22 02:46:12;;;;;;;5.15;4.10;;;12.60;92.90;;;;;;4906203;29;20055;-96
2022/04/22 02:48:39;;;;;;;3.92;3.35;;;12.80;92.70;;;;;;4892813;29;20045;-96
2022/04/22 02:51:10;;;;;;;8.48;4.75;;;12.80;92.70;;;;;;4903304;29;20040;-96
2022/04/22 02:53:38;;;;;;;3.35;3.05;;;12.60;93.00;;;;;;4904660;29;20033;-95
2022/04/22 02:56:06;;;;;;;7.43;5.60;;;12.80;92.60;;;;;;4896649;29;20467;-96
2022/04/22 02:58:35;;;;;;;7.05;6.40;;;12.80;92.20;;;;;;4894344;29;20053;-96
2022/04/22 03:01:02;;;;;;;8.13;5.38;;;12.60;92.60;;;;;;4904185;29;20037;-95
2022/04/22 03:03:30;;;;;;;4.90;3.35;;;12.40;93.20;;;;;;4902972;29;20037;-96
2022/04/22 03:05:56;;;;;;;4.20;3.80;;;12.60;93.20;;;;;;4896923;29;20445;-95
2022/04/22 03:08:26;;;;;;;4.25;3.85;;;12.60;93.00;;;;;;4901991;29;20052;-95
2022/04/22 03:10:55;;;;;;;3.38;2.92;;;12.50;93.20;;;;;;4903814;29;20626;-96
2022/04/22 03:13:22;;;;;;;5.20;4.70;;;12.60;93.00;;;;;;4903228;29;20037;-96
2022/04/22 03:15:48;;;;;;;4.90;3.97;;;12.70;93.00;;;;;;4903758;29;20137;-95
2022/04/22 03:18:13;;;;;;;6.95;5.68;;;12.70;93.00;;;;;;4899004;29;20076;-96
2022/04/22 03:20:39;;;;;;;4.68;4.00;;;12.60;92.90;;;;;;4898586;29;20036;-95
2022/04/22 03:23:05;;;;;;;4.53;2.97;;;12.60;93.00;;;;;;4886475;29;20045;-96
2022/04/22 03:25:30;;;;;;;4.82;4.35;;;12.60;93.30;;;;;;4900537;29;20032;-96
2022/04/22 03:27:59;;;;;;;4.22;3.83;;;12.70;92.80;;;;;;4900243;29;20051;-95
2022/04/22 03:30:25;;;;;;;5.90;3.40;;;12.80;92.80;;;;;;4899656;29;20040;-95
2022/04/22 03:32:51;;;;;;;3.78;3.20;;;12.90;92.50;;;;;;4899441;29;20054;-93
2022/04/22 03:35:17;;;;;;;3.78;3.22;;;13.00;92.20;;;;;;4898088;29;20049;-94
2022/04/22 03:37:46;;;;;;;5.57;4.90;;;13.10;92.00;;;;;;4898286;29;20055;-96
2022/04/22 03:40:11;;;;;;;4.00;3.55;;;13.10;92.00;;;;;;4897168;29;20132;-95
2022/04/22 03:42:38;;;;;;;4.90;4.20;;;13.10;91.80;;;;;;4898886;29;20469;-95
2022/04/22 03:45:04;;;;;;;4.28;3.38;;;13.20;91.80;;;;;;4895811;29;20056;-95
2022/04/22 03:47:34;;;;;;;3.28;2.90;;;13.10;91.90;;;;;;4900140;29;20033;-96
2022/04/22 03:50:00;;;;;;;3.55;3.22;;;13.20;91.90;;;;;;4894844;29;20074;-95
2022/04/22 03:52:27;;;;;;;5.20;3.75;;;13.10;91.90;;;;;;4898730;29;20458;-94
2022/04/22 03:54:52;;;;;;;5.35;4.30;;;13.00;91.90;;;;;;4900267;29;20542;-96
2022/04/22 04:00:03;;;;;;;5.75;4.30;;;13.00;92.10;;;;;;4895444;29;20051;-96
2022/04/22 04:02:29;;;;;;;3.60;2.78;;;13.00;92.00;;;;;;4885448;29;20087;-94
2022/04/22 04:04:54;;;;;;;3.65;3.25;;;13.00;92.30;;;;;;4899141;29;20072;-94
2022/04/22 04:07:20;;;;;;;3.75;2.80;;;13.00;91.80;;;;;;4900162;29;20122;-95
2022/04/22 04:18:05;;;;;;;4.63;3.38;;;13.20;91.40;;;;;;4895274;29;20524;-95
2022/04/22 04:23:15;;;;;;;5.65;3.78;;;13.20;91.50;;;;;;4899328;29;20060;-96
2022/04/22 04:25:43;;;;;;;3.92;3.22;;;13.20;91.60;;;;;;4899146;29;20028;-95
2022/04/22 04:28:10;;;;;;;8.63;4.28;;;13.10;91.90;;;;;;4899089;29;20077;-96
2022/04/22 04:30:40;;;;;;;3.83;3.53;;;13.10;91.70;;;;;;4900397;29;20033;-96
2022/04/22 04:33:06;;;;;;;;;;;13.20;91.70;;;;;;4897252;29;20049;-94
2022/04/22 04:35:32;;;;;;;4.82;3.25;;;13.10;92.00;;;;;;4880450;29;19926;-96
2022/04/22 04:38:02;;;;;;;3.35;2.60;;;13.10;92.10;;;;;;4914650;29;20124;-96
2022/04/22 04:40:29;;;;;;;4.20;3.00;;;13.10;92.30;;;;;;4901740;29;20093;-96
2022/04/22 04:46:17;;;;;;;4.43;2.75;;;13.10;92.20;;;;;;4964426;23;20058;-75
2022/04/22 04:48:43;;;;;;;5.32;3.33;;;13.20;91.80;;;;;;4934215;29;20043;-77
2022/04/22 04:51:13;;;;;;;3.88;3.15;;;13.20;91.80;;;;;;4933900;29;20040;-76
2022/04/22 04:53:40;;;;;;;3.75;3.15;;;13.10;92.10;;;;;;4917580;29;20373;-75
2022/04/22 04:56:06;;;;;;;2.55;2.30;;;13.00;92.10;;;;;;4916510;29;20047;-74
2022/04/22 04:58:32;;;;;;;3.65;2.60;;;13.00;92.60;;;;;;4934438;29;20047;-75
2022/04/22 05:00:58;;;;;;;4.72;2.40;;;13.00;92.40;;;;;;4935011;29;20511;-75
2022/04/22 05:03:24;;;;;;;3.70;2.50;;;13.00;92.50;;;;;;4916841;29;20051;-76
2022/04/22 05:05:49;;;;;;;2.80;2.50;;;13.10;92.60;;;;;;4934356;29;20488;-75
2022/04/22 05:08:37;;;;;;;2.47;2.28;;;13.10;92.50;;;;;;4933608;29;20518;-75
2022/04/22 05:11:27;;;;;;;2.08;1.88;;;13.20;92.30;;;;;;4934138;29;20043;-77
2022/04/22 05:13:53;;;;;;;;;;;13.30;91.90;;;;;;4934482;29;20083;-76
2022/04/22 05:16:19;;;;;;;4.90;2.65;;;13.30;92.00;;;;;;4932722;29;19911;-77
2022/04/22 05:18:44;;;;;;;2.92;2.38;;;13.20;92.00;;;;;;4934145;29;20067;-76
2022/04/22 05:21:10;;;;;;;3.15;2.67;;;13.00;92.50;;;;;;4932536;29;20043;-75
2022/04/22 05:23:36;;;;;;;6.25;4.30;;;13.10;92.60;;;;;;4933639;29;20071;-75
2022/04/22 05:26:02;;;;;;;2.78;2.50;;;13.00;92.20;;;;;;4933700;29;20067;-76
2022/04/22 05:28:28;;;;;;;3.55;2.50;;;13.00;92.80;;;;;;4933633;29;20563;-76
2022/04/22 05:33:39;;;;;;;2.45;2.00;;;13.10;92.50;;;;;;4932913;29;20046;-76
2022/04/22 05:36:06;;;;;;;4.32;2.67;;;13.20;92.40;;;;;;4930469;29;20043;-76
2022/04/22 05:38:32;;;;;;;6.03;3.15;;;13.30;92.40;;;;;;4933477;29;20392;-76
2022/04/22 05:40:57;;;;;;;4.72;2.92;;;13.30;92.30;;;;;;4934024;29;20043;-76
2022/04/22 05:43:24;;;;;;;3.67;3.20;;;13.20;92.50;;;;;;4930571;29;20055;-75
2022/04/22 05:45:50;;;;;;;3.45;2.53;;;13.20;92.40;;;;;;4930701;29;20086;-75
2022/04/22 05:48:21;;;;;;;6.32;3.78;;;13.30;92.30;;;;;;4932032;29;20047;-75
2022/04/22 05:50:47;;;;;;;5.75;3.53;;;13.30;92.30;;;;;;4917643;29;20051;-77
2022/04/22 05:53:13;;;;;;;3.58;2.53;;;13.30;92.40;;;;;;4925022;29;20048;-77
2022/04/22 05:55:39;;;;;;;6.00;3.10;;;13.40;92.30;;;;;;4934111;29;20034;-76
2022/04/22 05:58:04;;;;;;;4.05;2.45;;;13.40;92.50;;;;;;4916330;29;20043;-76
2022/04/22 06:00:31;;;;;;;4.00;2.63;;;13.40;92.20;;;;;;4923141;29;20032;-76
2022/04/22 06:03:07;;;;;;;3.25;2.13;;;13.40;92.30;;;;;;4933190;29;20047;-76
2022/04/22 06:05:33;;;;;;;4.95;2.83;;;13.40;92.10;;;;;;4928151;29;20083;-75
2022/04/22 06:10:52;;;;;;;2.97;2.10;;;13.50;91.90;;;;;;4934422;29;20531;-76
2022/04/22 06:13:18;;;;;;;2.72;2.35;;;13.50;91.80;;;;;;4928270;29;20172;-80
2022/04/22 06:15:43;;;;;;;5.30;2.80;;;13.50;92.00;;;;;;4935168;29;20503;-78
2022/04/22 06:18:09;;;;;;;3.28;2.35;;;13.50;92.00;;;;;;4913951;29;20068;-79
2022/04/22 06:20:35;;;;;;;2.90;2.47;;;13.50;92.10;;;;;;4916533;29;20047;-77
2022/04/22 06:23:01;;;;;;;2.42;2.22;;;13.40;92.30;;;;;;4933580;29;20072;-74
2022/04/22 06:25:28;;;;;;;4.53;3.08;;;13.50;92.10;;;;;;4927283;29;20076;-77
2022/04/22 06:27:53;;;;;;;4.03;2.72;;;13.50;92.10;;;;;;4928286;29;20043;-75
2022/04/22 06:30:21;;;;;;;4.03;2.30;;;13.50;92.50;;;;;;4931424;29;20035;-76
2022/04/22 06:32:53;;;;;;;4.68;2.83;;;13.40;92.60;;;;;;4936765;29;20043;-76
2022/04/22 06:35:19;;;;;;;4.10;2.63;;;13.50;92.70;;;;;;4932354;29;20358;-75
2022/04/22 06:37:47;;;;;;;5.90;3.78;;;13.50;92.60;;;;;;4930711;29;20036;-75
2022/04/22 06:45:50;;;;;;;2.85;2.40;;;13.30;92.90;;;;;;4938338;29;20119;-76
2022/04/22 06:48:31;;;;;;;4.07;3.03;;;13.30;93.00;;;;;;4921973;29;20039;-76
2022/04/22 06:50:59;;;;;;;5.40;2.70;;;13.30;93.00;;;;;;4902023;29;20103;-76
2022/04/22 06:53:25;;;;;;;3.45;2.15;;;13.40;92.90;;;;;;4926478;29;20040;-77
2022/04/22 06:55:53;;;;;;;136.88;110.15;;;13.40;92.90;;;;;;4937682;29;20039;-76
2022/04/22 06:58:21;;;;;;;75.47;63.28;;;13.40;92.90;;;;;;4936792;29;20068;-77
2022/04/22 07:00:47;;;;;;;8.20;6.47;;;13.50;92.90;;;;;;4920734;29;20071;-76
2022/04/22 07:03:17;;;;;;;2.63;2.30;;;13.30;93.20;;;;;;4920543;29;20513;-76
2022/04/22 07:05:47;;;;;;;4.35;2.92;;;13.30;93.40;;;;;;4922314;29;20036;-76
2022/04/22 07:08:19;;;;;;;3.92;2.45;;;13.20;93.30;;;;;;4922630;29;20408;-77
2022/04/22 07:11:05;;;;;;;2.78;2.20;;;13.30;93.30;;;;;;4921544;29;20046;-75
2022/04/22 07:13:36;;;;;;;4.07;2.58;;;13.40;93.00;;;;;;4923064;29;20479;-77
2022/04/22 07:16:20;;;;;;;3.85;2.20;;;13.40;93.10;;;;;;4936370;29;20501;-77
2022/04/22 07:18:47;;;;;;;1.77;1.63;;;13.30;93.10;;;;;;4920866;29;20047;-75
2022/04/22 07:21:14;;;;;;;3.85;2.28;;;13.40;92.70;;;;;;4937167;29;20508;-76
2022/04/22 07:23:40;;;;;;;3.50;2.20;;;13.50;92.60;;;;;;4938229;29;20047;-76
2022/04/22 07:26:09;;;;;;;3.70;2.33;;;13.50;92.50;;;;;;4937790;29;20918;-76
2022/04/22 07:28:37;;;;;;;2.10;1.65;;;13.50;92.50;;;;;;4921410;29;20035;-77
2022/04/22 07:31:03;;;;;;;4.50;2.75;;;13.50;92.70;;;;;;4937977;29;20071;-76
2022/04/22 07:33:33;;;;;;;4.95;2.70;;;13.50;92.70;;;;;;4939348;29;20511;-76
2022/04/22 07:35:59;;;;;;;2.42;2.00;;;13.40;92.80;;;;;;4936513;29;20492;-75
2022/04/22 07:38:25;;;;;;;3.83;2.30;;;13.50;92.80;;;;;;4937884;29;20032;-76
2022/04/22 07:40:51;;;;;;;1.90;1.60;;;13.40;92.90;;;;;;4936430;29;20047;-76
2022/04/22 07:51:31;;;;;;;1.98;1.50;;;13.40;93.00;;;;;;4845566;23;20336;-93
2022/04/22 08:00:26;;;;;;;3.25;2.58;;;13.60;92.90;;;;;;4922311;29;20019;-95
2022/04/22 08:03:21;;;;;;;2.78;1.65;;;13.60;92.40;;;;;;4920202;29;20032;-91
2022/04/22 08:06:06;;;;;;;2.17;1.65;;;13.50;92.90;;;;;;4922557;29;20037;-93
2022/04/22 08:08:50;;;;;;;2.60;1.75;;;13.60;92.70;;;;;;4901670;29;20040;-96
2022/04/22 08:11:36;;;;;;;2.25;1.70;;;13.70;92.90;;;;;;4921896;29;20032;-96
2022/04/22 08:14:11;;;;;;;2.83;1.80;;;13.80;92.40;;;;;;4913846;29;20094;-93
2022/04/22 08:17:12;;;;;;;2.30;1.60;;;13.80;92.40;;;;;;4923863;29;20055;-92
2022/04/22 08:19:40;;;;;;;2.17;1.50;;;13.80;92.50;;;;;;4921112;29;20025;-92
2022/04/22 08:26:07;;;;;;;1.60;1.45;;;13.70;92.80;;;;;;4834635;29;20043;-93
2022/04/22 08:29:01;;;;;;;2.03;1.50;;;13.60;92.80;;;;;;4845532;29;20034;-91
2022/04/22 08:31:39;;;;;;;2.15;1.75;;;13.60;93.00;;;;;;4844277;29;20074;-91
2022/04/22 08:34:22;;;;;;;1.73;1.15;;;13.60;92.80;;;;;;4839684;29;20053;-94
2022/04/22 08:36:52;;;;;;;2.47;1.50;;;13.60;93.10;;;;;;4886479;29;20041;-93
2022/04/22 08:39:27;;;;;;;3.85;2.10;;;13.60;93.20;;;;;;4883064;29;20079;-92
2022/04/22 08:42:09;;;;;;;1.85;1.35;;;13.60;92.90;;;;;;4905269;29;20036;-92
2022/04/22 08:44:43;;;;;;;2.80;1.15;;;13.40;93.90;;;;;;4899160;29;20029;-92
2022/04/22 08:50:32;;;;;;;3.63;1.50;;;13.50;93.70;;;;;;4873272;29;20463;-93
2022/04/22 08:53:08;;;;;;;2.88;1.33;;;13.70;93.10;;;;;;4888872;29;20072;-92
2022/04/22 08:55:39;;;;;;;3.00;1.27;;;13.60;93.20;;;;;;4888238;29;20052;-93
2022/04/22 08:58:12;;;;;;;2.33;0.98;;;13.70;93.00;;;;;;4894167;29;20048;-93
2022/04/22 09:00:41;;;;;;;1.67;1.20;;;13.80;93.10;;;;;;4855032;29;20040;-93
2022/04/22 09:03:19;;;;;;;1.20;1.00;;;13.70;93.10;;;;;;4880733;29;20044;-92
2022/04/22 09:06:50;;;;;;;2.60;1.17;;;13.60;93.30;;;;;;4898624;29;20048;-93
2022/04/22 09:09:41;;;;;;;1.27;1.02;;;13.70;93.40;;;;;;4899014;29;20069;-92
2022/04/22 09:12:37;;;;;;;3.63;1.17;;;13.80;93.20;;;;;;4909161;29;20080;-93
2022/04/22 09:17:33;;;;;;;2.03;1.02;;;13.80;92.90;;;;;;4914479;29;20060;-78
2022/04/22 09:20:01;;;;;;;5.43;1.80;;;13.80;93.00;;;;;;4915375;29;20035;-77
2022/04/22 09:22:29;;;;;;;1.60;0.95;;;13.80;93.30;;;;;;4915300;29;20122;-77
2022/04/22 09:24:59;;;;;;;1.02;0.93;;;13.90;93.30;;;;;;4915520;29;20032;-78
2022/04/22 09:27:44;;;;;;;1.35;0.90;;;13.90;93.20;;;;;;4915120;29;20057;-78
2022/04/22 09:30:13;;;;;;;1.95;1.20;;;14.00;93.00;;;;;;4913963;29;20044;-78
2022/04/22 09:32:41;;;;;;;1.15;0.73;;;13.90;92.70;;;;;;4915473;29;20120;-78
2022/04/22 09:35:16;;;;;;;1.50;1.00;;;13.90;93.20;;;;;;4915012;29;20028;-78
2022/04/22 09:43:37;;;;;;;0.70;0.70;;;13.90;93.20;;;;;;4912628;29;20119;-78
2022/04/22 09:46:04;;;;;;;0.93;0.65;;;14.00;93.00;;;;;;4916221;29;20040;-78
2022/04/22 09:48:44;;;;;;;1.75;1.30;;;14.00;93.10;;;;;;4915721;29;20044;-75
2022/04/22 09:51:27;;;;;;;1.45;0.85;;;14.00;92.80;;;;;;4914602;29;20060;-76
2022/04/22 09:54:14;;;;;;;0.88;0.63;;;14.00;92.70;;;;;;4914738;29;20100;-76
2022/04/22 09:56:54;;;;;;;0.95;0.70;;;13.90;92.60;;;;;;4915332;29;20055;-76
2022/04/22 09:59:25;;;;;;;1.08;0.63;;;14.00;93.10;;;;;;4914880;29;20055;-75
2022/04/22 10:01:51;;;;;;;1.02;0.73;;;14.00;93.00;;;;;;4914774;29;20448;-76
2022/04/22 10:04:21;;;;;;;1.65;0.77;;;14.10;93.00;;;;;;4932284;29;20051;-76
2022/04/22 10:06:49;;;;;;;1.25;0.80;;;14.10;92.80;;;;;;4914392;29;20481;-75
2022/04/22 10:09:15;;;;;;;0.50;0.50;;;14.20;92.60;;;;;;4915035;29;20076;-75
2022/04/22 10:11:43;;;;;;;1.25;0.93;;;14.20;92.60;;;;;;4915802;29;20039;-75
2022/04/22 10:14:10;;;;;;;1.58;0.80;;;14.20;92.80;;;;;;4915547;29;20036;-75
2022/04/22 10:16:36;;;;;;;0.98;0.73;;;14.20;92.80;;;;;;4911113;29;20048;-75
2022/04/22 10:19:03;;;;;;;0.93;0.60;;;14.30;92.60;;;;;;4919132;29;20119;-75
2022/04/22 10:21:29;;;;;;;1.23;0.90;;;14.20;92.90;;;;;;4937968;29;20495;-75
2022/04/22 10:23:58;;;;;;;1.00;0.90;;;14.20;93.00;;;;;;4938272;29;20083;-75
2022/04/22 10:26:28;;;;;;;0.93;0.70;;;14.10;93.00;;;;;;4937521;29;20046;-75
2022/04/22 10:28:54;;;;;;;1.15;0.70;;;14.20;92.40;;;;;;4921348;29;20404;-75
2022/04/22 10:31:22;;;;;;;1.25;0.88;;;14.10;92.90;;;;;;4937706;29;20400;-75
2022/04/22 10:33:48;;;;;;;1.30;0.70;;;14.20;92.50;;;;;;4937651;29;20039;-75
2022/04/22 10:36:15;;;;;;;1.30;0.70;;;14.20;92.40;;;;;;4937661;29;20440;-75
2022/04/22 10:38:44;;;;;;;0.50;0.50;;;14.20;92.60;;;;;;4920473;29;20512;-75
2022/04/22 10:41:18;;;;;;;1.30;0.80;;;14.20;92.60;;;;;;4920958;29;20127;-75
2022/04/22 10:47:13;;;;;;;1.27;0.65;;;14.20;92.60;;;;;;4851714;29;20038;-75
2022/04/22 10:49:44;;;;;;;0.90;0.60;;;14.20;92.40;;;;;;4860652;29;20072;-75
2022/04/22 10:52:18;;;;;;;1.38;0.70;;;14.10;92.60;;;;;;4908218;29;20047;-75
2022/04/22 10:54:52;;;;;;;0.98;0.63;;;14.20;92.50;;;;;;4937813;29;20134;-75
2022/04/22 10:57:23;;;;;;;2.40;0.80;;;14.10;92.60;;;;;;4937767;29;20051;-76
2022/04/22 11:00:12;;;;;;;0.82;0.50;;;14.20;92.40;;;;;;4937864;29;20047;-75
2022/04/22 11:02:42;;;;;;;0.43;0.40;;;14.20;92.60;;;;;;4929772;29;20481;-74
2022/04/22 11:05:19;;;;;;;1.67;0.85;;;14.20;92.60;;;;;;4919663;29;20048;-75
2022/04/22 11:07:51;;;;;;;2.22;0.60;;;14.20;92.60;;;;;;4918563;29;20036;-76
2022/04/22 11:10:18;;;;;;;0.68;0.50;;;14.20;92.50;;;;;;4920229;29;20480;-77
2022/04/22 11:12:55;;;;;;;1.58;0.80;;;14.30;92.60;;;;;;4923679;29;20035;-77
2022/04/22 11:15:43;;;;;;;2.33;0.90;;;14.30;92.50;;;;;;4925279;29;20119;-78
2022/04/22 11:18:13;;;;;;;1.63;0.80;;;14.40;92.50;;;;;;4929783;29;20114;-77
2022/04/22 11:20:43;;;;;;;0.70;0.68;;;14.40;92.60;;;;;;4914760;29;20039;-78
2022/04/22 11:23:16;;;;;;;1.13;0.80;;;14.20;93.00;;;;;;4924709;29;20098;-77
2022/04/22 11:25:43;;;;;;;1.83;1.30;;;14.20;93.20;;;;;;4916822;29;20590;-78
2022/04/22 11:28:09;;;;;;;1.98;0.88;;;14.10;93.20;;;;;;4921741;29;20505;-77
2022/04/22 11:30:35;;;;;;;1.88;1.10;;;14.30;93.30;;;;;;4929244;29;20540;-77
2022/04/22 11:33:23;;;;;;;1.35;0.90;;;14.40;92.80;;;;;;4906291;29;20397;-77
2022/04/22 11:35:59;;;;;;;0.82;0.80;;;14.40;92.70;;;;;;4931816;29;20031;-78
2022/04/22 11:38:26;;;;;;;1.80;0.93;;;14.50;92.50;;;;;;4931394;29;20027;-77
2022/04/22 11:40:52;;;;;;;0.95;0.70;;;14.50;92.50;;;;;;4933838;29;20711;-78
2022/04/22 11:43:20;;;;;;;0.80;0.80;;;14.60;92.30;;;;;;4908226;29;20032;-78
2022/04/22 11:45:47;;;;;;;1.00;0.85;;;14.70;92.20;;;;;;4922092;29;20098;-77
2022/04/22 11:48:22;;;;;;;1.80;1.40;;;14.70;92.40;;;;;;4918324;29;20044;-77
2022/04/22 11:50:48;;;;;;;1.33;1.08;;;14.70;92.10;;;;;;4908885;29;20481;-77
2022/04/22 11:53:26;;;;;;;3.13;0.75;;;14.50;92.40;;;;;;4921380;29;20168;-77
2022/04/22 11:55:52;;;;;;;1.70;0.80;;;14.60;92.40;;;;;;4924467;29;20024;-77
2022/04/22 11:58:27;;;;;;;0.75;0.70;;;14.60;92.10;;;;;;4929207;29;20031;-76
2022/04/22 12:06:24;;;;;;;1.40;1.10;;;14.70;91.90;;;;;;4928543;29;20047;-77
2022/04/22 12:09:06;;;;;;;1.77;1.30;;;14.80;91.90;;;;;;4925691;29;20039;-77
2022/04/22 12:11:45;;;;;;;1.75;1.08;;;14.60;91.90;;;;;;4934382;29;20036;-77
2022/04/22 12:14:11;;;;;;;1.70;1.00;;;14.50;92.00;;;;;;4928454;29;20032;-77
2022/04/22 12:16:38;;;;;;;2.55;1.08;;;14.50;91.90;;;;;;4930991;29;20552;-76
2022/04/22 12:19:07;;;;;;;1.70;1.15;;;14.50;92.00;;;;;;4936020;29;20055;-76
2022/04/22 12:21:34;;;;;;;1.10;1.00;;;14.60;91.80;;;;;;4918923;29;20047;-76
2022/04/22 12:24:02;;;;;;;1.77;0.98;;;14.60;91.90;;;;;;4936278;29;20433;-76
2022/04/22 12:26:34;;;;;;;1.23;1.13;;;14.60;91.70;;;;;;4933100;29;20036;-76
2022/04/22 12:29:02;;;;;;;2.00;1.45;;;14.60;91.90;;;;;;4935258;29;20408;-76
2022/04/22 12:31:32;;;;;;;1.90;1.70;;;14.50;92.00;;;;;;4934633;29;20542;-77
2022/04/22 12:34:02;;;;;;;2.42;1.30;;;14.50;92.40;;;;;;4917906;29;20523;-77
2022/04/22 12:36:28;;;;;;;2.55;1.20;;;14.60;92.30;;;;;;4934722;29;20102;-77
2022/04/22 12:38:56;;;;;;;1.45;1.20;;;14.60;92.30;;;;;;4918269;29;20052;-77
2022/04/22 12:41:25;;;;;;;3.72;1.52;;;14.60;92.20;;;;;;4934208;29;20040;-77
2022/04/22 12:43:55;;;;;;;1.33;1.15;;;14.50;92.40;;;;;;4920623;29;20039;-77
2022/04/22 12:52:30;;;;;;;1.23;1.10;;;14.60;92.50;;;;;;4895917;29;20066;-77
2022/04/22 12:55:12;;;;;;;3.90;1.70;;;14.70;92.40;;;;;;4927887;29;20028;-78
2022/04/22 12:57:41;;;;;;;1.20;1.08;;;14.60;92.40;;;;;;4934142;29;20024;-77
2022/04/22 13:00:15;;;;;;;2.45;1.40;;;14.60;92.50;;;;;;4935021;29;20445;-77
2022/04/22 13:02:41;;;;;;;1.33;1.00;;;14.50;92.50;;;;;;4938339;28;20043;-77
2022/04/22 13:05:19;;;;;;;2.10;1.45;;;14.60;92.50;;;;;;4922660;29;20424;-77
2022/04/22 13:07:49;;;;;;;1.88;1.05;;;14.50;92.40;;;;;;4932664;29;20036;-77
2022/04/22 13:10:17;;;;;;;1.67;1.15;;;14.50;92.80;;;;;;4932651;29;20395;-78
2022/04/22 13:12:44;;;;;;;1.55;0.93;;;14.50;92.80;;;;;;4915667;29;20035;-77
2022/04/22 13:15:17;;;;;;;1.30;0.70;;;14.60;92.60;;;;;;4931790;29;20071;-77
2022/04/22 13:17:44;;;;;;;1.25;1.05;;;14.70;92.40;;;;;;4932280;29;20043;-77
2022/04/22 13:20:14;;;;;;;3.65;1.60;;;14.70;93.00;;;;;;4915748;29;20059;-77
2022/04/22 13:22:40;;;;;;;2.10;1.20;;;14.60;93.00;;;;;;4925975;29;20040;-77
2022/04/22 13:25:11;;;;;;;3.00;1.10;;;14.50;93.20;;;;;;4922739;29;20055;-76
2022/04/22 13:27:41;;;;;;;1.85;1.13;;;14.60;93.20;;;;;;4908504;29;20138;-77
2022/04/22 13:30:08;;;;;;;;;;;14.60;93.10;;;;;;4914918;29;20056;-77
2022/04/22 13:32:35;;;;;;;3.35;1.90;;;14.60;93.00;;;;;;4923615;29;19919;-77
2022/04/22 13:35:01;;;;;;;2.40;1.25;;;14.70;92.70;;;;;;4907815;29;20032;-77
2022/04/22 13:37:26;;;;;;;1.75;1.10;;;14.60;93.30;;;;;;4910384;29;20059;-77
2022/04/22 13:39:52;;;;;;;1.02;0.93;;;14.70;93.30;;;;;;4892130;29;20392;-77
2022/04/22 13:42:18;;;;;;;1.77;0.93;;;14.90;93.00;;;;;;4931028;29;20119;-77
2022/04/22 13:52:57;;;;;;;2.45;1.70;;;15.30;92.20;;;;;;4931323;29;20047;-77
2022/04/22 13:55:23;;;;;;;2.15;1.40;;;15.30;92.20;;;;;;4917119;29;20039;-77
2022/04/22 13:57:49;;;;;;;4.05;1.38;;;15.30;91.90;;;;;;4929324;29;20040;-76
2022/04/22 14:00:15;;;;;;;1.75;0.80;;;15.30;92.40;;;;;;4922031;29;20067;-76
2022/04/22 14:02:41;;;;;;;1.73;1.05;;;15.30;92.50;;;;;;4952776;29;20074;-76
2022/04/22 14:05:07;;;;;;;1.98;0.80;;;15.50;92.00;;;;;;4949413;29;20075;-76
2022/04/22 14:07:33;;;;;;;1.23;0.88;;;15.60;91.90;;;;;;4938284;29;20055;-76
2022/04/22 14:09:58;;;;;;;0.70;0.70;;;15.80;91.60;;;;;;4919199;29;20090;-76
2022/04/22 14:12:25;;;;;;;1.95;1.10;;;15.80;91.50;;;;;;4927400;29;20039;-76
2022/04/22 14:14:53;;;;;;;0.77;0.60;;;15.90;90.60;;;;;;4930588;29;20032;-76
2022/04/22 14:17:19;;;;;;;1.25;0.90;;;15.80;90.80;;;;;;4931154;29;20048;-76
2022/04/22 14:19:50;;;;;;;1.42;0.88;;;15.80;90.80;;;;;;4929312;29;20035;-76
2022/04/22 14:22:22;;;;;;;2.25;0.70;;;15.90;90.50;;;;;;4926987;29;20040;-76
2022/04/22 14:24:48;;;;;;;1.35;0.88;;;15.90;90.50;;;;;;4916451;29;20038;-76
2022/04/22 14:27:15;;;;;;;0.63;0.63;;;15.80;89.30;;;;;;4935522;29;20186;-75
2022/04/22 14:29:40;;;;;;;1.05;0.90;;;15.80;90.00;;;;;;4929219;29;20051;-76
2022/04/22 14:32:07;;;;;;;2.10;0.80;;;15.80;90.10;;;;;;4928786;29;20412;-75
2022/04/22 14:34:33;;;;;;;0.73;0.60;;;15.90;90.20;;;;;;4931294;29;20027;-75
2022/04/22 14:36:59;;;;;;;2.03;1.08;;;15.90;90.20;;;;;;4927506;29;20042;-75
2022/04/22 14:39:25;;;;;;;1.30;0.80;;;15.90;90.10;;;;;;4916972;29;20034;-75